Time;durP1;ratioP1;P1;durP2;ratioP2;P2;SDS_P1;SDS_P2;PMS_P1;PMS_P2;Temp;Humidity;BMP_temperature;BMP_pressure;BME280_temperature;BME280_humidity;BME280_pressure;Samples;Min_cycle;Max_cycle;Signal;HPM_P1;HPM_P2
2021/05/27 00:01:29;;;;;;;5.60;5.20;;;;;;;;;;5053757;28;20734;-73
2021/05/27 00:03:55;;;;;;;5.93;5.28;;;;;;;;;;5066873;28;20191;-69
2021/05/27 00:06:21;;;;;;;6.32;5.47;;;;;;;;;;5053443;28;20212;-70
2021/05/27 00:08:47;;;;;;;7.25;5.20;;;;;;;;;;5053174;28;20226;-72
2021/05/27 00:11:13;;;;;;;11.25;5.95;;;;;;;;;;5055797;28;20618;-70
2021/05/27 00:13:39;;;;;;;6.05;5.35;;;;;;;;;;5059251;28;20202;-71
2021/05/27 00:16:06;;;;;;;6.68;5.97;;;;;;;;;;5053498;28;20177;-71
2021/05/27 00:18:32;;;;;;;7.25;5.95;;;;;;;;;;5053247;28;20256;-71
2021/05/27 00:20:58;;;;;;;11.10;6.60;;;;;;;;;;5053225;28;20271;-73
2021/05/27 00:23:24;;;;;;;7.28;6.18;;;;;;;;;;5053103;28;20583;-74
2021/05/27 00:25:50;;;;;;;7.00;6.35;;;;;;;;;;5064338;28;20199;-73
2021/05/27 00:28:16;;;;;;;10.13;6.75;;;;;;;;;;5074092;28;20203;-75
2021/05/27 00:30:42;;;;;;;9.40;6.77;;;;;;;;;;5074934;28;20560;-75
2021/05/27 00:33:08;;;;;;;7.50;6.85;;;;;;;;;;5068140;28;20423;-75
2021/05/27 00:35:34;;;;;;;8.10;7.30;;;;;;;;;;5053062;28;20180;-72
2021/05/27 00:38:00;;;;;;;8.10;6.95;;;;;;;;;;5065466;28;20430;-73
2021/05/27 00:40:26;;;;;;;9.20;7.20;;;;;;;;;;5059709;28;20677;-73
2021/05/27 00:42:52;;;;;;;13.00;7.68;;;;;;;;;;5064480;28;20184;-71
2021/05/27 00:45:19;;;;;;;7.55;6.85;;;;;;;;;;5061419;28;20184;-73
2021/05/27 00:47:45;;;;;;;8.30;6.93;;;;;;;;;;5064030;28;20205;-71
2021/05/27 00:50:20;;;;;;;9.93;6.97;;;;;;;;;;5072871;28;20188;-71
2021/05/27 00:52:46;;;;;;;9.18;6.75;;;;;;;;;;5060045;28;20214;-74
2021/05/27 00:55:12;;;;;;;13.40;6.53;;;;;;;;;;5071395;28;20577;-74
2021/05/27 00:57:39;;;;;;;7.95;6.80;;;;;;;;;;5082478;28;20295;-74
2021/05/27 01:00:06;;;;;;;11.10;7.50;;;;;;;;;;5054617;28;20545;-72
2021/05/27 01:02:32;;;;;;;10.20;6.55;;;;;;;;;;5079286;28;20176;-72
2021/05/27 01:04:58;;;;;;;12.65;7.32;;;;;;;;;;5062952;28;20177;-73
2021/05/27 01:07:24;;;;;;;8.02;6.55;;;;;;;;;;5052522;28;20219;-73
2021/05/27 01:09:51;;;;;;;10.45;7.15;;;;;;;;;;5057107;28;20251;-73
2021/05/27 01:12:17;;;;;;;7.72;6.55;;;;;;;;;;5052631;28;20569;-72
2021/05/27 01:17:27;;;;;;;8.93;7.05;;;;;;;;;;5056059;28;20322;-72
2021/05/27 01:19:54;;;;;;;8.10;5.95;;;;;;;;;;5062851;28;20204;-73
2021/05/27 01:22:21;;;;;;;7.88;5.60;;;;;;;;;;5055994;28;20247;-72
2021/05/27 01:24:48;;;;;;;6.90;6.30;;;;;;;;;;5066215;28;20624;-72
2021/05/27 01:27:14;;;;;;;10.30;5.90;;;;;;;;;;5061799;28;20227;-71
2021/05/27 01:29:41;;;;;;;6.90;6.20;;;;;;;;;;5062738;28;20258;-72
2021/05/27 01:32:08;;;;;;;8.38;6.45;;;;;;;;;;5077940;28;20175;-72
2021/05/27 01:34:34;;;;;;;7.47;6.78;;;;;;;;;;5069738;28;20184;-71
2021/05/27 01:37:00;;;;;;;9.02;7.10;;;;;;;;;;5056814;28;20177;-74
2021/05/27 01:39:26;;;;;;;8.50;7.57;;;;;;;;;;5056204;28;20276;-73
2021/05/27 01:41:52;;;;;;;9.18;7.32;;;;;;;;;;5069101;28;20185;-73
2021/05/27 01:44:18;;;;;;;8.40;7.20;;;;;;;;;;5062535;28;20184;-72
2021/05/27 01:46:44;;;;;;;8.98;7.78;;;;;;;;;;5068635;28;20203;-72
2021/05/27 01:49:10;;;;;;;9.63;7.70;;;;;;;;;;5079304;28;20179;-73
2021/05/27 01:51:36;;;;;;;7.85;7.10;;;;;;;;;;5065576;28;20264;-75
2021/05/27 01:54:03;;;;;;;10.00;6.32;;;;;;;;;;5055727;28;20177;-74
2021/05/27 01:56:29;;;;;;;10.45;6.68;;;;;;;;;;5081675;28;20185;-72
2021/05/27 01:59:02;;;;;;;7.32;6.50;;;;;;;;;;5065246;28;20175;-75
2021/05/27 02:01:28;;;;;;;9.32;6.30;;;;;;;;;;5064483;28;20187;-74
2021/05/27 02:03:54;;;;;;;6.88;6.20;;;;;;;;;;5071283;28;20217;-72
2021/05/27 02:06:20;;;;;;;8.73;5.85;;;;;;;;;;5055592;28;20569;-72
2021/05/27 02:11:31;;;;;;;8.10;5.53;;;;;;;;;;5055854;28;20184;-75
2021/05/27 02:13:57;;;;;;;6.68;5.00;;;;;;;;;;5056599;28;20252;-74
2021/05/27 02:16:23;;;;;;;5.47;4.97;;;;;;;;;;5072653;28;20270;-75
2021/05/27 02:18:49;;;;;;;6.60;5.10;;;;;;;;;;5065882;28;20196;-72
2021/05/27 02:21:16;;;;;;;5.78;4.53;;;;;;;;;;5066785;28;20210;-75
2021/05/27 02:23:42;;;;;;;6.10;4.47;;;;;;;;;;5059077;28;20181;-72
2021/05/27 02:26:08;;;;;;;5.70;5.15;;;;;;;;;;5068603;28;20205;-74
2021/05/27 02:28:34;;;;;;;5.45;4.40;;;;;;;;;;5062798;28;20181;-74
2021/05/27 02:31:00;;;;;;;4.78;4.13;;;;;;;;;;5068990;28;20195;-75
2021/05/27 02:33:26;;;;;;;5.68;4.07;;;;;;;;;;5083265;28;20252;-72
2021/05/27 02:35:52;;;;;;;4.68;3.50;;;;;;;;;;5055325;28;20263;-72
2021/05/27 02:38:18;;;;;;;6.60;4.00;;;;;;;;;;5055413;28;20260;-71
2021/05/27 02:40:44;;;;;;;3.95;3.40;;;;;;;;;;5060763;28;20438;-72
2021/05/27 02:43:10;;;;;;;5.53;3.70;;;;;;;;;;5060800;28;20522;-74
2021/05/27 02:45:36;;;;;;;4.80;3.47;;;;;;;;;;5072925;28;20258;-74
2021/05/27 02:48:02;;;;;;;3.70;2.67;;;;;;;;;;5067178;28;20283;-72
2021/05/27 02:50:28;;;;;;;3.42;2.38;;;;;;;;;;5085740;28;20529;-75
2021/05/27 02:52:54;;;;;;;3.40;2.20;;;;;;;;;;5060585;28;20177;-71
2021/05/27 02:55:20;;;;;;;4.88;1.98;;;;;;;;;;5073963;28;20209;-72
2021/05/27 02:57:46;;;;;;;5.50;2.55;;;;;;;;;;5075685;28;20173;-73
2021/05/27 03:00:12;;;;;;;5.80;2.30;;;;;;;;;;5056490;28;20620;-73
2021/05/27 03:02:38;;;;;;;4.57;2.50;;;;;;;;;;5070023;28;20493;-74
2021/05/27 03:05:04;;;;;;;2.70;2.20;;;;;;;;;;5058381;28;20598;-74
2021/05/27 03:07:30;;;;;;;3.70;2.33;;;;;;;;;;5054601;28;20213;-75
2021/05/27 03:09:56;;;;;;;3.67;2.33;;;;;;;;;;5057378;28;20193;-73
2021/05/27 03:12:22;;;;;;;4.87;2.77;;;;;;;;;;5057910;28;20545;-72
2021/05/27 03:14:48;;;;;;;4.73;2.80;;;;;;;;;;5062334;28;20405;-70
2021/05/27 03:17:14;;;;;;;2.72;2.47;;;;;;;;;;5057571;28;20814;-70
2021/05/27 03:19:40;;;;;;;3.67;1.90;;;;;;;;;;5056621;28;20204;-71
2021/05/27 03:22:06;;;;;;;3.92;2.20;;;;;;;;;;5054417;28;20486;-74
2021/05/27 03:24:32;;;;;;;2.60;2.00;;;;;;;;;;5063019;28;20209;-73
2021/05/27 03:26:58;;;;;;;3.25;1.90;;;;;;;;;;5063787;28;20193;-74
2021/05/27 03:29:24;;;;;;;4.45;2.53;;;;;;;;;;5061704;28;20197;-74
2021/05/27 03:31:50;;;;;;;2.80;1.90;;;;;;;;;;5065622;28;20190;-75
2021/05/27 03:34:16;;;;;;;2.57;1.80;;;;;;;;;;5068868;28;20176;-73
2021/05/27 03:36:43;;;;;;;2.60;1.65;;;;;;;;;;5057341;28;20427;-72
2021/05/27 03:39:09;;;;;;;2.95;2.38;;;;;;;;;;5053742;28;20185;-73
2021/05/27 03:41:35;;;;;;;3.42;2.33;;;;;;;;;;5064720;28;20188;-73
2021/05/27 03:44:01;;;;;;;3.58;2.50;;;;;;;;;;5056665;28;20184;-72
2021/05/27 03:46:27;;;;;;;4.40;2.17;;;;;;;;;;5061946;28;20654;-71
2021/05/27 03:48:53;;;;;;;3.55;2.70;;;;;;;;;;5063733;28;20179;-73
2021/05/27 03:51:20;;;;;;;4.10;2.53;;;;;;;;;;5056881;28;20193;-71
2021/05/27 03:53:46;;;;;;;3.25;2.60;;;;;;;;;;5056296;28;20233;-73
2021/05/27 03:56:12;;;;;;;2.70;2.50;;;;;;;;;;5060915;28;20177;-73
2021/05/27 04:01:23;;;;;;;5.35;3.70;;;;;;;;;;5073435;28;20280;-73
2021/05/27 04:09:18;;;;;;;3.70;3.20;;;;;;;;;;5057780;28;20267;-73
2021/05/27 04:11:44;;;;;;;4.40;3.60;;;;;;;;;;5062256;28;20606;-75
2021/05/27 04:14:10;;;;;;;5.68;3.80;;;;;;;;;;5056052;28;20184;-74
2021/05/27 04:16:36;;;;;;;6.30;3.80;;;;;;;;;;5073854;28;20549;-72
2021/05/27 04:19:02;;;;;;;5.00;3.70;;;;;;;;;;5058864;28;20180;-74
2021/05/27 04:21:28;;;;;;;4.47;3.80;;;;;;;;;;5062164;28;20173;-73
2021/05/27 04:23:54;;;;;;;8.13;4.35;;;;;;;;;;5080581;28;20184;-73
2021/05/27 04:26:20;;;;;;;5.53;4.50;;;;;;;;;;5054996;28;20581;-74
2021/05/27 04:28:47;;;;;;;7.38;3.85;;;;;;;;;;5062254;28;20519;-73
2021/05/27 04:31:18;;;;;;;4.78;4.22;;;;;;;;;;5069751;28;20195;-73
2021/05/27 04:33:44;;;;;;;5.72;3.80;;;;;;;;;;5073595;28;20233;-75
2021/05/27 04:36:14;;;;;;;9.05;4.90;;;;;;;;;;5068354;28;20546;-74
2021/05/27 04:38:41;;;;;;;5.40;3.72;;;;;;;;;;5053492;28;20188;-71
2021/05/27 04:41:07;;;;;;;8.05;4.40;;;;;;;;;;5064547;28;20184;-75
2021/05/27 04:43:39;;;;;;;5.18;4.68;;;;;;;;;;5053314;28;20215;-74
2021/05/27 04:46:05;;;;;;;4.20;3.70;;;;;;;;;;5059339;28;20173;-73
2021/05/27 04:48:31;;;;;;;6.65;4.15;;;;;;;;;;5060150;28;20168;-72
2021/05/27 04:50:57;;;;;;;7.68;4.82;;;;;;;;;;5059143;28;20601;-73
2021/05/27 04:53:24;;;;;;;5.25;4.10;;;;;;;;;;5058335;28;20188;-73
2021/05/27 04:55:51;;;;;;;4.75;4.00;;;;;;;;;;5052721;28;20173;-71
2021/05/27 04:58:17;;;;;;;6.35;4.38;;;;;;;;;;5056438;28;20230;-75
2021/05/27 05:00:43;;;;;;;6.53;4.00;;;;;;;;;;5057365;28;20589;-70
2021/05/27 05:03:09;;;;;;;9.82;4.60;;;;;;;;;;5056763;28;20193;-71
2021/05/27 05:05:36;;;;;;;4.90;3.92;;;;;;;;;;5056581;28;20195;-74
2021/05/27 05:08:02;;;;;;;5.88;4.28;;;;;;;;;;5064588;28;20171;-73
2021/05/27 05:10:29;;;;;;;6.50;4.30;;;;;;;;;;5062165;28;20212;-74
2021/05/27 05:12:55;;;;;;;5.15;3.95;;;;;;;;;;5056685;28;20173;-74
2021/05/27 05:15:26;;;;;;;6.10;4.00;;;;;;;;;;5057249;28;20242;-73
2021/05/27 05:17:55;;;;;;;6.10;4.43;;;;;;;;;;5056301;28;20207;-71
2021/05/27 05:20:24;;;;;;;8.45;4.40;;;;;;;;;;5056511;28;20189;-73
2021/05/27 05:22:50;;;;;;;5.10;4.50;;;;;;;;;;5056249;28;20180;-74
2021/05/27 05:25:17;;;;;;;5.93;4.67;;;;;;;;;;5056505;28;20177;-74
2021/05/27 05:27:43;;;;;;;9.90;4.82;;;;;;;;;;5073036;28;20483;-73
2021/05/27 05:30:09;;;;;;;4.70;4.22;;;;;;;;;;5078901;28;20279;-72
2021/05/27 05:32:35;;;;;;;7.88;4.50;;;;;;;;;;5063579;28;20205;-74
2021/05/27 05:35:01;;;;;;;8.23;4.30;;;;;;;;;;5056869;28;20200;-75
2021/05/27 05:37:28;;;;;;;5.13;4.57;;;;;;;;;;5056519;28;20204;-72
2021/05/27 05:39:54;;;;;;;6.75;4.53;;;;;;;;;;5056321;28;20197;-73
2021/05/27 05:42:20;;;;;;;5.38;3.95;;;;;;;;;;5056551;28;20187;-73
2021/05/27 05:44:46;;;;;;;7.35;4.25;;;;;;;;;;5062475;28;20177;-74
2021/05/27 05:47:12;;;;;;;6.18;4.30;;;;;;;;;;5060660;28;20172;-74
2021/05/27 05:49:38;;;;;;;4.80;3.70;;;;;;;;;;5074819;28;20330;-73
2021/05/27 05:52:05;;;;;;;6.25;3.70;;;;;;;;;;5075292;28;20541;-74
2021/05/27 05:54:31;;;;;;;4.63;3.38;;;;;;;;;;5058324;28;20184;-73
2021/05/27 05:56:57;;;;;;;4.20;3.40;;;;;;;;;;5056051;28;20197;-75
2021/05/27 05:59:23;;;;;;;4.47;3.00;;;;;;;;;;5055833;28;20201;-75
2021/05/27 06:01:50;;;;;;;6.53;3.92;;;;;;;;;;5054223;28;20181;-74
2021/05/27 06:04:16;;;;;;;4.68;3.42;;;;;;;;;;5064275;28;20616;-75
2021/05/27 06:06:42;;;;;;;4.10;3.50;;;;;;;;;;5052029;28;20561;-74
2021/05/27 06:09:08;;;;;;;8.57;3.90;;;;;;;;;;5051484;28;20180;-72
2021/05/27 06:11:34;;;;;;;4.47;3.38;;;;;;;;;;5052088;28;20722;-70
2021/05/27 06:14:00;;;;;;;4.53;4.07;;;;;;;;;;5051654;28;20519;-72
2021/05/27 06:16:26;;;;;;;4.47;3.92;;;;;;;;;;5051829;28;20227;-71
2021/05/27 06:18:52;;;;;;;5.22;3.70;;;;;;;;;;5050418;28;20262;-73
2021/05/27 06:21:18;;;;;;;6.45;4.10;;;;;;;;;;5051612;28;20197;-73
2021/05/27 06:23:44;;;;;;;3.80;3.30;;;;;;;;;;5053557;28;20181;-76
2021/05/27 06:26:11;;;;;;;5.82;4.05;;;;;;;;;;5058353;28;20177;-75
2021/05/27 06:28:37;;;;;;;8.63;3.83;;;;;;;;;;5052449;28;20265;-77
2021/05/27 06:31:03;;;;;;;5.45;4.30;;;;;;;;;;5051666;28;20215;-73
2021/05/27 06:33:29;;;;;;;5.82;3.67;;;;;;;;;;5056280;28;20215;-76
2021/05/27 06:35:55;;;;;;;3.55;3.25;;;;;;;;;;5066943;28;20204;-74
2021/05/27 06:38:22;;;;;;;5.90;3.20;;;;;;;;;;5074481;28;20598;-76
2021/05/27 06:40:48;;;;;;;3.80;3.47;;;;;;;;;;5073567;28;20224;-74
2021/05/27 06:43:14;;;;;;;4.90;3.20;;;;;;;;;;5068574;28;20600;-70
2021/05/27 06:45:40;;;;;;;6.25;3.53;;;;;;;;;;5057281;28;20537;-72
2021/05/27 06:48:06;;;;;;;3.40;3.10;;;;;;;;;;5051320;28;20318;-73
2021/05/27 06:50:33;;;;;;;5.15;3.08;;;;;;;;;;5053811;28;20200;-75
2021/05/27 06:53:06;;;;;;;3.63;3.20;;;;;;;;;;5059231;28;20200;-74
2021/05/27 06:55:33;;;;;;;3.80;3.50;;;;;;;;;;5053588;28;20375;-72
2021/05/27 06:57:59;;;;;;;3.83;3.42;;;;;;;;;;5068182;28;20231;-72
2021/05/27 07:00:26;;;;;;;4.00;3.60;;;;;;;;;;5060334;28;20197;-75
2021/05/27 07:02:52;;;;;;;6.13;4.38;;;;;;;;;;5073106;28;20541;-73
2021/05/27 07:05:19;;;;;;;4.45;4.05;;;;;;;;;;5070751;28;20249;-75
2021/05/27 07:07:46;;;;;;;5.70;4.68;;;;;;;;;;5050939;28;20216;-75
2021/05/27 07:10:13;;;;;;;4.30;3.75;;;;;;;;;;5058605;28;20270;-73
2021/05/27 07:12:39;;;;;;;5.72;3.90;;;;;;;;;;5050885;28;20215;-75
2021/05/27 07:15:06;;;;;;;4.50;3.90;;;;;;;;;;5056688;28;20189;-73
2021/05/27 07:17:32;;;;;;;5.05;4.32;;;;;;;;;;5050476;28;20205;-73
2021/05/27 07:19:58;;;;;;;6.00;4.30;;;;;;;;;;5054062;28;20250;-75
2021/05/27 07:22:24;;;;;;;7.80;4.57;;;;;;;;;;5050734;28;20181;-73
2021/05/27 07:24:50;;;;;;;4.40;3.90;;;;;;;;;;5060196;28;20175;-72
2021/05/27 07:27:16;;;;;;;4.28;3.70;;;;;;;;;;5078622;28;20679;-73
2021/05/27 07:29:43;;;;;;;5.35;4.50;;;;;;;;;;5062426;28;20258;-72
2021/05/27 07:32:09;;;;;;;11.13;4.63;;;;;;;;;;5057301;28;20272;-75
2021/05/27 07:34:37;;;;;;;6.85;4.80;;;;;;;;;;5065338;28;20234;-72
2021/05/27 07:37:03;;;;;;;4.85;4.40;;;;;;;;;;5070203;28;20207;-72
2021/05/27 07:39:29;;;;;;;5.97;4.43;;;;;;;;;;5069843;28;20280;-76
2021/05/27 07:41:55;;;;;;;6.95;4.00;;;;;;;;;;5070023;28;20286;-74
2021/05/27 07:44:21;;;;;;;4.60;4.20;;;;;;;;;;5056825;28;20178;-74
2021/05/27 07:46:47;;;;;;;5.15;4.00;;;;;;;;;;5050229;28;20416;-72
2021/05/27 07:49:13;;;;;;;5.67;4.13;;;;;;;;;;5050046;28;20250;-75
2021/05/27 07:51:39;;;;;;;5.80;4.00;;;;;;;;;;5049992;28;20520;-74
2021/05/27 07:54:06;;;;;;;7.83;4.30;;;;;;;;;;5049986;28;20498;-75
2021/05/27 07:56:32;;;;;;;8.43;3.70;;;;;;;;;;5068005;28;20508;-75
2021/05/27 07:58:58;;;;;;;4.70;3.83;;;;;;;;;;5063849;28;20631;-73
2021/05/27 08:01:25;;;;;;;6.63;4.50;;;;;;;;;;5049727;28;20431;-74
2021/05/27 08:03:51;;;;;;;6.50;4.00;;;;;;;;;;5060741;28;20190;-76
2021/05/27 08:06:17;;;;;;;6.32;4.65;;;;;;;;;;5049555;28;20756;-72
2021/05/27 08:08:43;;;;;;;7.00;3.80;;;;;;;;;;5058718;28;20208;-72
2021/05/27 08:11:09;;;;;;;7.05;5.18;;;;;;;;;;5048145;28;20664;-75
2021/05/27 08:13:35;;;;;;;6.70;3.60;;;;;;;;;;5057057;28;20212;-73
2021/05/27 08:16:01;;;;;;;5.07;3.42;;;;;;;;;;5064785;28;20429;-71
2021/05/27 08:18:27;;;;;;;6.05;3.90;;;;;;;;;;5051322;28;20631;-73
2021/05/27 08:20:53;;;;;;;6.78;3.85;;;;;;;;;;5073385;28;20199;-77
2021/05/27 08:23:19;;;;;;;7.77;4.30;;;;;;;;;;5052594;28;20689;-73
2021/05/27 08:25:45;;;;;;;5.00;4.10;;;;;;;;;;5054513;28;20407;-76
2021/05/27 08:28:11;;;;;;;7.22;4.50;;;;;;;;;;5059111;28;20426;-76
2021/05/27 08:30:37;;;;;;;6.78;4.47;;;;;;;;;;5057933;28;20207;-72
2021/05/27 08:33:03;;;;;;;8.38;4.93;;;;;;;;;;5051004;28;20184;-73
2021/05/27 08:35:29;;;;;;;5.75;4.10;;;;;;;;;;5060270;28;20184;-73
2021/05/27 08:37:55;;;;;;;5.40;4.47;;;;;;;;;;5064232;28;20565;-74
2021/05/27 08:40:22;;;;;;;6.05;4.30;;;;;;;;;;5048781;28;20197;-70
2021/05/27 08:42:49;;;;;;;6.55;4.75;;;;;;;;;;5054475;28;20642;-72
2021/05/27 08:45:15;;;;;;;6.28;4.45;;;;;;;;;;5049022;28;20247;-73
2021/05/27 08:47:42;;;;;;;6.40;4.93;;;;;;;;;;5052833;28;20215;-71
2021/05/27 08:50:09;;;;;;;7.43;4.90;;;;;;;;;;5069032;28;20204;-72
2021/05/27 08:52:35;;;;;;;6.40;4.15;;;;;;;;;;5069001;28;20188;-71
2021/05/27 08:55:01;;;;;;;4.10;3.70;;;;;;;;;;5071205;28;20191;-72
2021/05/27 08:57:27;;;;;;;5.15;3.33;;;;;;;;;;5051816;28;20263;-74
2021/05/27 08:59:54;;;;;;;13.27;11.93;;;;;;;;;;5066641;28;20196;-74
2021/05/27 09:02:20;;;;;;;5.00;3.70;;;;;;;;;;5048871;28;20531;-74
2021/05/27 09:04:46;;;;;;;4.13;3.75;;;;;;;;;;5052802;28;20260;-75
2021/05/27 09:07:12;;;;;;;6.07;4.00;;;;;;;;;;5064920;28;20200;-75
2021/05/27 09:09:48;;;;;;;4.32;3.92;;;;;;;;;;5079031;28;20207;-74
2021/05/27 09:12:23;;;;;;;5.00;3.65;;;;;;;;;;5050944;28;20651;-72
2021/05/27 09:14:49;;;;;;;5.15;3.40;;;;;;;;;;5051983;28;20178;-74
2021/05/27 09:17:15;;;;;;;4.87;3.57;;;;;;;;;;5069761;28;20200;-74
2021/05/27 09:19:41;;;;;;;4.20;3.80;;;;;;;;;;5065882;28;20452;-74
2021/05/27 09:22:25;;;;;;;10.13;4.70;;;;;;;;;;5079603;28;20790;-73
2021/05/27 09:24:51;;;;;;;9.13;4.20;;;;;;;;;;5069022;28;20177;-73
2021/05/27 09:27:17;;;;;;;5.32;4.57;;;;;;;;;;5075342;28;20177;-74
2021/05/27 09:29:44;;;;;;;6.35;4.40;;;;;;;;;;5075186;28;20228;-73
2021/05/27 09:32:11;;;;;;;6.05;4.45;;;;;;;;;;5062891;28;20185;-72
2021/05/27 09:34:41;;;;;;;5.65;4.30;;;;;;;;;;5056486;28;20243;-73
2021/05/27 09:37:08;;;;;;;7.57;4.82;;;;;;;;;;5062497;28;20212;-72
2021/05/27 09:39:41;;;;;;;7.15;5.07;;;;;;;;;;5048026;28;20731;-72
2021/05/27 09:42:09;;;;;;;4.80;4.40;;;;;;;;;;5071332;28;20226;-75
2021/05/27 09:44:35;;;;;;;5.55;4.95;;;;;;;;;;5067637;28;20173;-75
2021/05/27 09:47:03;;;;;;;5.20;4.22;;;;;;;;;;5065148;28;20229;-72
2021/05/27 09:49:31;;;;;;;6.18;4.90;;;;;;;;;;5081952;28;20248;-71
2021/05/27 09:51:58;;;;;;;4.97;4.50;;;;;;;;;;5071139;28;20196;-76
2021/05/27 09:54:25;;;;;;;5.72;4.50;;;;;;;;;;5050772;28;20276;-77
2021/05/27 09:56:51;;;;;;;5.72;4.20;;;;;;;;;;5062697;28;20232;-73
2021/05/27 09:59:17;;;;;;;5.90;4.30;;;;;;;;;;5072219;28;20217;-74
2021/05/27 10:02:12;;;;;;;4.30;3.72;;;;;;;;;;5051968;28;20485;-76
2021/05/27 10:04:38;;;;;;;5.07;3.90;;;;;;;;;;5057839;28;20195;-74
2021/05/27 10:07:04;;;;;;;4.53;4.10;;;;;;;;;;5083775;28;20435;-75
2021/05/27 10:09:30;;;;;;;5.13;4.63;;;;;;;;;;5052067;28;21220;-73
2021/05/27 10:11:56;;;;;;;4.87;4.40;;;;;;;;;;5057859;28;20428;-76
2021/05/27 10:14:24;;;;;;;5.25;4.53;;;;;;;;;;5061913;28;20426;-75
2021/05/27 10:16:50;;;;;;;4.60;4.10;;;;;;;;;;5057746;28;20539;-74
2021/05/27 10:19:16;;;;;;;4.60;4.20;;;;;;;;;;5051345;28;20185;-73
2021/05/27 10:21:42;;;;;;;4.43;4.03;;;;;;;;;;5055986;28;20185;-74
2021/05/27 10:24:08;;;;;;;5.00;4.38;;;;;;;;;;5050064;28;20441;-74
2021/05/27 10:26:34;;;;;;;6.10;4.43;;;;;;;;;;5054083;28;20213;-74
2021/05/27 10:29:01;;;;;;;4.15;3.78;;;;;;;;;;5058182;28;20519;-76
2021/05/27 10:31:28;;;;;;;3.70;3.40;;;;;;;;;;5052444;28;20204;-76
2021/05/27 10:33:55;;;;;;;3.97;3.50;;;;;;;;;;5066609;28;20220;-73
2021/05/27 10:36:21;;;;;;;4.27;3.00;;;;;;;;;;5063515;28;20433;-72
2021/05/27 10:38:50;;;;;;;3.93;3.50;;;;;;;;;;5069339;28;20429;-74
2021/05/27 10:41:20;;;;;;;3.90;3.43;;;;;;;;;;5052625;28;20451;-76
2021/05/27 10:44:01;;;;;;;5.50;3.00;;;;;;;;;;5051069;28;20415;-76
2021/05/27 10:46:28;;;;;;;2.93;2.73;;;;;;;;;;5058659;28;20426;-76
2021/05/27 10:48:54;;;;;;;3.30;3.00;;;;;;;;;;5066474;28;20422;-74
2021/05/27 10:51:27;;;;;;;3.63;2.90;;;;;;;;;;5055049;28;20488;-74
2021/05/27 10:53:54;;;;;;;2.70;2.40;;;;;;;;;;5050019;28;20505;-73
2021/05/27 10:56:21;;;;;;;2.80;2.50;;;;;;;;;;5057396;28;20814;-77
2021/05/27 11:01:14;;;;;;;2.23;1.90;;;;;;;;;;5070769;28;20204;-77
2021/05/27 11:03:50;;;;;;;5.60;2.20;;;;;;;;;;5058819;28;20548;-74
2021/05/27 11:06:20;;;;;;;2.90;2.35;;;;;;;;;;5059259;28;20663;-73
2021/05/27 11:08:47;;;;;;;2.60;2.25;;;;;;;;;;5078190;28;20199;-74
2021/05/27 11:11:31;;;;;;;3.95;3.65;;;;;;;;;;5053497;28;20208;-78
2021/05/27 11:14:16;;;;;;;2.80;2.25;;;;;;;;;;5050629;28;20262;-74
2021/05/27 11:27:43;;;;;;;2.10;1.63;;;;;;;;;;5052589;28;20852;-76
2021/05/27 11:30:18;;;;;;;2.63;1.40;;;;;;;;;;5079304;28;20449;-77
2021/05/27 11:32:45;;;;;;;2.00;1.80;;;;;;;;;;5050318;28;20733;-75
2021/05/27 11:35:11;;;;;;;2.60;2.00;;;;;;;;;;5072245;28;20424;-73
2021/05/27 11:37:38;;;;;;;2.20;1.60;;;;;;;;;;5049917;28;20524;-73
2021/05/27 11:40:06;;;;;;;4.83;1.73;;;;;;;;;;5060487;28;20496;-74
2021/05/27 11:42:33;;;;;;;2.67;1.40;;;;;;;;;;5049100;28;20428;-76
2021/05/27 11:44:59;;;;;;;1.87;1.00;;;;;;;;;;5058589;28;20821;-77
2021/05/27 11:47:26;;;;;;;1.80;1.10;;;;;;;;;;5050170;28;20476;-73
2021/05/27 11:50:12;;;;;;;1.97;1.10;;;;;;;;;;5056540;28;20454;-74
2021/05/27 11:52:38;;;;;;;2.40;1.30;;;;;;;;;;5049945;28;20834;-77
2021/05/27 11:55:11;;;;;;;3.73;1.40;;;;;;;;;;5066509;28;20437;-79
2021/05/27 11:57:40;;;;;;;2.77;1.77;;;;;;;;;;5071331;28;20469;-76
2021/05/27 12:00:07;;;;;;;5.30;1.90;;;;;;;;;;5050617;28;20478;-75
2021/05/27 12:02:47;;;;;;;2.10;1.40;;;;;;;;;;5062339;28;20441;-76
2021/05/27 12:05:20;;;;;;;4.60;1.90;;;;;;;;;;5057174;28;20426;-76
2021/05/27 12:08:04;;;;;;;2.40;1.87;;;;;;;;;;5069812;28;20899;-76
2021/05/27 12:10:30;;;;;;;2.97;2.30;;;;;;;;;;5069883;28;20517;-76
2021/05/27 12:12:56;;;;;;;2.10;1.70;;;;;;;;;;5054457;28;20408;-74
2021/05/27 12:15:23;;;;;;;6.00;1.90;;;;;;;;;;5052462;28;20409;-75
2021/05/27 12:17:50;;;;;;;2.53;2.03;;;;;;;;;;5048178;28;21052;-73
2021/05/27 12:20:19;;;;;;;2.40;1.80;;;;;;;;;;5049679;28;20436;-74
2021/05/27 12:22:50;;;;;;;2.70;1.87;;;;;;;;;;5059225;28;20417;-78
2021/05/27 12:25:19;;;;;;;3.83;1.97;;;;;;;;;;5049007;28;20429;-77
2021/05/27 12:27:46;;;;;;;2.90;1.97;;;;;;;;;;5060078;28;20418;-78
2021/05/27 12:30:13;;;;;;;3.70;1.90;;;;;;;;;;5069260;28;20499;-75
2021/05/27 12:32:43;;;;;;;2.30;1.70;;;;;;;;;;5076952;28;20512;-75
2021/05/27 12:35:09;;;;;;;2.50;1.57;;;;;;;;;;5069628;28;20475;-78
2021/05/27 12:37:39;;;;;;;2.80;1.73;;;;;;;;;;5072767;28;20471;-74
2021/05/27 12:40:07;;;;;;;2.40;1.70;;;;;;;;;;5055769;28;20943;-77
2021/05/27 12:42:37;;;;;;;2.40;1.90;;;;;;;;;;5049448;28;20431;-74
2021/05/27 12:45:22;;;;;;;2.53;1.80;;;;;;;;;;5054194;28;20525;-76
2021/05/27 12:48:03;;;;;;;2.63;1.83;;;;;;;;;;5048924;28;20422;-76
2021/05/27 12:50:29;;;;;;;3.60;2.30;;;;;;;;;;5052861;28;20999;-73
2021/05/27 12:52:55;;;;;;;2.70;2.00;;;;;;;;;;5048883;28;20425;-73
2021/05/27 12:55:26;;;;;;;5.53;2.77;;;;;;;;;;5050947;28;20420;-76
2021/05/27 12:57:53;;;;;;;4.40;2.60;;;;;;;;;;5068197;28;20473;-74
2021/05/27 13:00:19;;;;;;;6.37;2.40;;;;;;;;;;5060993;28;20774;-76
2021/05/27 13:02:57;;;;;;;3.80;2.30;;;;;;;;;;5048715;28;20754;-76
2021/05/27 13:05:24;;;;;;;2.83;2.00;;;;;;;;;;5057711;28;20422;-74
2021/05/27 13:08:00;;;;;;;3.07;1.97;;;;;;;;;;5052106;28;20420;-74
2021/05/27 13:10:26;;;;;;;2.50;2.23;;;;;;;;;;5057563;28;20468;-77
2021/05/27 13:12:52;;;;;;;2.77;2.00;;;;;;;;;;5052978;28;20754;-75
2021/05/27 13:15:19;;;;;;;3.97;1.97;;;;;;;;;;5055687;28;20484;-76
2021/05/27 13:18:00;;;;;;;3.13;2.00;;;;;;;;;;5056893;28;20466;-74
2021/05/27 13:20:26;;;;;;;4.60;1.90;;;;;;;;;;5060409;28;20454;-74
2021/05/27 13:22:52;;;;;;;2.67;2.00;;;;;;;;;;5054728;28;20403;-75
2021/05/27 13:25:18;;;;;;;3.00;1.70;;;;;;;;;;5057081;28;20461;-76
2021/05/27 13:27:49;;;;;;;2.80;1.80;;;;;;;;;;5056510;28;20403;-74
2021/05/27 13:30:17;;;;;;;2.67;1.90;;;;;;;;;;5062836;28;20446;-75
2021/05/27 13:32:45;;;;;;;2.63;2.13;;;;;;;;;;5053021;28;21087;-77
2021/05/27 13:35:10;;;;;;;2.10;1.77;;;;;;;;;;5071540;28;20230;-76
2021/05/27 13:37:44;;;;;;;2.70;1.70;;;;;;;;;;5064822;28;20458;-73
2021/05/27 13:40:12;;;;;;;2.47;1.80;;;;;;;;;;5072572;28;20444;-74
2021/05/27 13:42:38;;;;;;;3.80;2.30;;;;;;;;;;5079301;28;20564;-74
2021/05/27 13:45:12;;;;;;;4.40;2.50;;;;;;;;;;5054105;28;20403;-72
2021/05/27 13:47:38;;;;;;;3.33;2.33;;;;;;;;;;5057353;28;20419;-78
2021/05/27 13:50:04;;;;;;;3.00;2.27;;;;;;;;;;5053583;28;20431;-78
2021/05/27 13:52:30;;;;;;;4.53;2.37;;;;;;;;;;5068221;28;20493;-76
2021/05/27 13:54:57;;;;;;;3.80;2.50;;;;;;;;;;5061671;28;20429;-78
2021/05/27 13:57:24;;;;;;;4.63;4.23;;;;;;;;;;5071032;28;20460;-76
2021/05/27 13:59:50;;;;;;;3.70;2.80;;;;;;;;;;5072031;28;20810;-77
2021/05/27 14:02:16;;;;;;;2.97;2.67;;;;;;;;;;5056815;28;20420;-75
2021/05/27 14:04:42;;;;;;;3.60;2.70;;;;;;;;;;5057414;28;20445;-74
2021/05/27 14:07:08;;;;;;;3.90;2.80;;;;;;;;;;5056771;28;20466;-74
2021/05/27 14:09:34;;;;;;;5.20;2.53;;;;;;;;;;5058032;28;20448;-74
2021/05/27 14:12:00;;;;;;;3.27;2.70;;;;;;;;;;5071320;28;20434;-75
2021/05/27 14:14:26;;;;;;;3.47;2.50;;;;;;;;;;5053880;28;20430;-75
2021/05/27 14:16:53;;;;;;;4.00;2.80;;;;;;;;;;5063749;28;20489;-72
2021/05/27 14:19:19;;;;;;;4.97;2.47;;;;;;;;;;5054743;28;20423;-74
2021/05/27 14:21:45;;;;;;;3.90;2.60;;;;;;;;;;5071734;28;20857;-74
2021/05/27 14:24:11;;;;;;;2.50;2.00;;;;;;;;;;5057415;28;20444;-77
2021/05/27 14:26:38;;;;;;;3.53;2.20;;;;;;;;;;5060854;28;20522;-75
2021/05/27 14:29:04;;;;;;;2.20;1.80;;;;;;;;;;5067876;28;20426;-71
2021/05/27 14:31:30;;;;;;;3.23;2.10;;;;;;;;;;5070505;28;20436;-74
2021/05/27 14:33:57;;;;;;;2.13;1.70;;;;;;;;;;5058778;28;20433;-76
2021/05/27 14:36:24;;;;;;;2.07;1.60;;;;;;;;;;5072158;28;20432;-73
2021/05/27 14:38:50;;;;;;;2.27;1.80;;;;;;;;;;5064934;28;20404;-75
2021/05/27 14:41:16;;;;;;;2.73;1.90;;;;;;;;;;5051407;28;20797;-72
2021/05/27 14:43:42;;;;;;;2.47;1.97;;;;;;;;;;5051817;28;20499;-76
2021/05/27 14:46:08;;;;;;;3.63;2.33;;;;;;;;;;5051399;28;20502;-72
2021/05/27 14:48:35;;;;;;;2.30;2.10;;;;;;;;;;5051281;28;20424;-75
2021/05/27 14:51:01;;;;;;;3.25;2.72;;;;;;;;;;5050944;28;20443;-75
2021/05/27 14:53:28;;;;;;;3.00;2.63;;;;;;;;;;5050822;28;20181;-78
2021/05/27 14:55:54;;;;;;;3.60;2.60;;;;;;;;;;5061347;28;20398;-74
2021/05/27 14:58:20;;;;;;;3.30;2.55;;;;;;;;;;5070836;28;20519;-75
2021/05/27 15:00:49;;;;;;;3.40;2.88;;;;;;;;;;5070977;28;20273;-73
2021/05/27 15:03:15;;;;;;;3.60;2.75;;;;;;;;;;5070511;28;20652;-76
2021/05/27 15:05:41;;;;;;;3.53;2.85;;;;;;;;;;5061791;28;20192;-77
2021/05/27 15:08:07;;;;;;;3.40;2.70;;;;;;;;;;5056899;28;20187;-74
2021/05/27 15:10:34;;;;;;;3.58;3.28;;;;;;;;;;5067605;28;20447;-78